Time;durP1;ratioP1;P1;durP2;ratioP2;P2;SDS_P1;SDS_P2;PMS_P1;PMS_P2;Temp;Humidity;BMP_temperature;BMP_pressure;BME280_temperature;BME280_humidity;BME280_pressure;Samples;Min_cycle;Max_cycle;Signal;HPM_P1;HPM_P2
2024/01/28 00:00:36;;;;;;;37.55;16.15;;;1.90;99.90;;;;;;5072712;28;20052;-82
2024/01/28 00:03:02;;;;;;;40.95;15.55;;;1.90;99.90;;;;;;5072894;28;20048;-81
2024/01/28 00:05:28;;;;;;;44.50;16.05;;;1.90;99.90;;;;;;5072912;28;20064;-87
2024/01/28 00:07:54;;;;;;;36.53;15.75;;;2.00;99.90;;;;;;5054948;28;20467;-87
2024/01/28 00:10:20;;;;;;;36.88;13.80;;;2.00;99.90;;;;;;5072665;28;20044;-89
2024/01/28 00:12:46;;;;;;;43.28;15.35;;;2.00;99.90;;;;;;5073169;28;20110;-86
2024/01/28 00:15:11;;;;;;;31.63;13.75;;;1.90;99.90;;;;;;5072648;28;20040;-81
2024/01/28 00:17:37;;;;;;;36.58;14.43;;;1.90;99.90;;;;;;5054705;28;20071;-83
2024/01/28 00:20:06;;;;;;;40.25;16.25;;;1.90;99.90;;;;;;5054670;28;20174;-81
2024/01/28 00:22:32;;;;;;;48.15;16.58;;;1.90;99.90;;;;;;5072083;28;20550;-80
2024/01/28 00:24:58;;;;;;;43.83;15.57;;;2.00;99.90;;;;;;5072969;28;20041;-86
2024/01/28 00:27:24;;;;;;;33.83;16.02;;;2.00;99.90;;;;;;5073161;28;20344;-81
2024/01/28 00:29:50;;;;;;;38.55;13.90;;;2.00;99.90;;;;;;5072340;28;20491;-81
2024/01/28 00:32:16;;;;;;;41.60;15.35;;;2.00;99.90;;;;;;5073207;28;20044;-85
2024/01/28 00:34:41;;;;;;;47.58;15.77;;;1.90;99.90;;;;;;5055271;28;20041;-84
2024/01/28 00:37:07;;;;;;;37.78;15.25;;;1.90;99.90;;;;;;5054107;28;20049;-83
2024/01/28 00:39:33;;;;;;;36.28;14.02;;;1.90;99.90;;;;;;5072285;28;20433;-88
2024/01/28 00:41:59;;;;;;;40.33;14.10;;;1.90;99.90;;;;;;5054657;28;20138;-82
2024/01/28 00:44:24;;;;;;;33.22;14.13;;;1.90;99.90;;;;;;5053634;28;20809;-83
2024/01/28 00:46:50;;;;;;;32.00;13.27;;;1.90;99.90;;;;;;5072145;28;20063;-86
2024/01/28 00:49:16;;;;;;;45.28;14.40;;;1.90;99.90;;;;;;5074337;28;20106;-83
2024/01/28 00:51:41;;;;;;;35.88;13.73;;;1.90;99.90;;;;;;5072806;28;20056;-88
2024/01/28 00:54:07;;;;;;;48.15;15.13;;;1.90;99.90;;;;;;5055608;28;20045;-81
2024/01/28 00:56:33;;;;;;;31.20;12.85;;;1.80;99.90;;;;;;5072108;28;20045;-84
2024/01/28 00:58:59;;;;;;;33.97;12.60;;;1.80;99.90;;;;;;5037517;28;20063;-82
2024/01/28 01:01:25;;;;;;;36.40;14.38;;;1.80;99.90;;;;;;5072084;28;20052;-83
2024/01/28 01:03:51;;;;;;;29.75;12.88;;;1.80;99.90;;;;;;5072236;28;20128;-82
2024/01/28 01:06:16;;;;;;;27.52;13.23;;;1.80;99.90;;;;;;5072273;28;20060;-83
2024/01/28 01:08:42;;;;;;;30.48;13.43;;;1.90;99.90;;;;;;5076060;28;20048;-84
2024/01/28 01:11:08;;;;;;;30.30;11.90;;;1.90;99.90;;;;;;5079631;28;20059;-82
2024/01/28 01:13:33;;;;;;;27.77;11.27;;;1.90;99.90;;;;;;5085065;28;20045;-88
2024/01/28 01:15:59;;;;;;;29.73;12.13;;;1.90;99.90;;;;;;5075756;28;20497;-81
2024/01/28 01:18:25;;;;;;;29.65;12.07;;;1.90;99.90;;;;;;5056704;28;20545;-81
2024/01/28 01:20:52;;;;;;;24.42;11.90;;;1.90;99.90;;;;;;5073802;28;20053;-88
2024/01/28 01:23:17;;;;;;;30.70;11.93;;;1.90;99.90;;;;;;5071175;28;20136;-84
2024/01/28 01:25:43;;;;;;;41.22;13.00;;;1.90;99.90;;;;;;5071486;28;20135;-88
2024/01/28 01:28:09;;;;;;;25.55;11.60;;;1.90;99.90;;;;;;5053471;28;20092;-88
2024/01/28 01:30:35;;;;;;;34.80;10.85;;;1.90;99.90;;;;;;5053002;28;20048;-87
2024/01/28 01:33:01;;;;;;;28.92;11.68;;;1.90;99.90;;;;;;5071303;28;20102;-89
2024/01/28 01:35:27;;;;;;;33.80;13.00;;;1.90;99.90;;;;;;5072331;28;20174;-87
2024/01/28 01:37:56;;;;;;;25.80;10.63;;;1.90;99.90;;;;;;5053761;28;20075;-87
2024/01/28 01:40:22;;;;;;;28.05;12.82;;;1.90;99.90;;;;;;5071616;28;20052;-88
2024/01/28 01:42:48;;;;;;;25.42;10.45;;;1.90;99.90;;;;;;5071012;28;20404;-87
2024/01/28 01:45:14;;;;;;;27.08;10.73;;;1.90;99.90;;;;;;5071214;28;20075;-88
2024/01/28 01:47:41;;;;;;;26.73;11.43;;;1.90;99.90;;;;;;5071056;28;20084;-84
2024/01/28 01:50:10;;;;;;;25.88;10.85;;;1.90;99.90;;;;;;5071208;28;20048;-90
2024/01/28 01:52:39;;;;;;;34.67;12.95;;;1.90;99.90;;;;;;5052702;28;20127;-87
2024/01/28 01:55:06;;;;;;;31.48;12.07;;;1.80;99.90;;;;;;5056689;28;20056;-87
2024/01/28 01:57:32;;;;;;;34.30;10.85;;;1.90;99.90;;;;;;5077585;28;20086;-87
2024/01/28 01:59:58;;;;;;;23.30;9.35;;;1.80;99.90;;;;;;5077630;28;20396;-86
2024/01/28 02:02:26;;;;;;;25.25;11.45;;;1.80;99.90;;;;;;5078773;28;20058;-87
2024/01/28 02:04:51;;;;;;;20.67;9.43;;;1.80;99.90;;;;;;5077272;28;20053;-87
2024/01/28 02:07:17;;;;;;;36.85;12.63;;;1.80;99.90;;;;;;5059587;28;20127;-89
2024/01/28 02:09:44;;;;;;;18.23;8.98;;;1.80;99.90;;;;;;5059799;28;20485;-88
2024/01/28 02:12:10;;;;;;;26.65;10.68;;;1.80;99.90;;;;;;5077569;28;20057;-85
2024/01/28 02:14:36;;;;;;;23.02;9.50;;;1.80;99.90;;;;;;5059280;28;20041;-90
2024/01/28 02:17:02;;;;;;;30.38;11.23;;;1.80;99.90;;;;;;5077750;28;20053;-89
2024/01/28 02:19:28;;;;;;;31.02;10.52;;;1.80;99.90;;;;;;5081334;28;20048;-89
2024/01/28 02:21:54;;;;;;;18.60;9.77;;;1.80;99.90;;;;;;5078147;28;20060;-87
2024/01/28 02:24:20;;;;;;;23.25;10.52;;;1.70;99.90;;;;;;5077214;28;20053;-88
2024/01/28 02:26:45;;;;;;;34.20;11.75;;;1.80;99.90;;;;;;5077404;28;20392;-86
2024/01/28 02:29:11;;;;;;;29.40;9.25;;;1.80;99.90;;;;;;5078066;28;20041;-89
2024/01/28 02:31:37;;;;;;;26.52;10.15;;;1.80;99.90;;;;;;5059271;28;20059;-88
2024/01/28 02:34:03;;;;;;;24.65;9.13;;;1.80;99.90;;;;;;5059426;28;20481;-84
2024/01/28 02:36:30;;;;;;;34.78;9.55;;;1.80;99.90;;;;;;5077819;28;20040;-87
2024/01/28 02:38:55;;;;;;;30.20;12.52;;;1.80;99.90;;;;;;5077980;28;20102;-90
2024/01/28 02:41:21;;;;;;;27.23;8.98;;;1.80;99.90;;;;;;5080509;28;20052;-90
2024/01/28 02:43:47;;;;;;;25.67;11.00;;;1.80;99.90;;;;;;5077639;28;20097;-88
2024/01/28 02:46:14;;;;;;;23.70;9.65;;;1.80;99.90;;;;;;5059432;28;20048;-86
2024/01/28 02:48:40;;;;;;;27.23;10.18;;;1.90;99.90;;;;;;5077274;28;20139;-88
2024/01/28 02:51:06;;;;;;;26.67;10.60;;;1.90;99.90;;;;;;5059184;28;20132;-87
2024/01/28 02:53:32;;;;;;;29.63;10.55;;;1.90;99.90;;;;;;5077269;28;20155;-85
2024/01/28 02:56:00;;;;;;;24.02;8.52;;;1.90;99.90;;;;;;5077068;28;20053;-86
2024/01/28 02:58:26;;;;;;;21.55;8.90;;;2.00;99.90;;;;;;5077770;28;20131;-89
2024/01/28 03:00:52;;;;;;;21.73;10.75;;;2.00;99.90;;;;;;5078091;28;20076;-86
2024/01/28 03:03:18;;;;;;;22.80;8.85;;;2.10;99.90;;;;;;5077095;28;20136;-86
2024/01/28 03:05:44;;;;;;;22.52;10.48;;;2.10;99.90;;;;;;5076239;28;20846;-85
2024/01/28 03:08:10;;;;;;;30.45;11.40;;;2.20;99.90;;;;;;5055557;28;20106;-86
2024/01/28 03:10:37;;;;;;;20.42;8.70;;;2.20;99.90;;;;;;5073874;28;20044;-87
2024/01/28 03:13:03;;;;;;;21.48;8.88;;;2.20;99.90;;;;;;5074281;28;20131;-88
2024/01/28 03:15:29;;;;;;;24.08;9.15;;;2.20;99.90;;;;;;5056182;28;20076;-88
2024/01/28 03:17:55;;;;;;;22.40;9.15;;;2.20;99.90;;;;;;5074094;28;20107;-85
2024/01/28 03:20:21;;;;;;;43.17;10.63;;;2.30;99.90;;;;;;5073925;28;20461;-85
2024/01/28 03:22:46;;;;;;;27.17;8.88;;;2.20;99.90;;;;;;5073580;28;20636;-89
2024/01/28 03:25:15;;;;;;;26.30;9.88;;;2.20;99.90;;;;;;5074038;28;20052;-90
2024/01/28 03:27:41;;;;;;;23.52;9.93;;;2.20;99.90;;;;;;5074673;28;20056;-82
2024/01/28 03:30:08;;;;;;;29.30;10.02;;;2.20;99.90;;;;;;5073436;28;20088;-83
2024/01/28 03:32:34;;;;;;;28.13;8.85;;;2.10;99.90;;;;;;5073648;28;20055;-90
2024/01/28 03:35:01;;;;;;;25.70;10.30;;;2.20;99.90;;;;;;5073799;28;20412;-84
2024/01/28 03:37:27;;;;;;;24.33;9.38;;;2.10;99.90;;;;;;5073588;28;20411;-82
2024/01/28 03:39:52;;;;;;;19.95;9.95;;;2.10;99.90;;;;;;5055658;28;20064;-83
2024/01/28 03:42:18;;;;;;;29.05;9.55;;;2.10;99.90;;;;;;5073566;28;20049;-89
2024/01/28 03:44:44;;;;;;;27.65;9.25;;;2.10;99.90;;;;;;5056300;28;20058;-85
2024/01/28 03:47:09;;;;;;;21.23;9.27;;;2.10;99.90;;;;;;5055599;28;20127;-84
2024/01/28 03:49:35;;;;;;;24.70;10.02;;;2.10;99.90;;;;;;5054976;28;20110;-85
2024/01/28 03:52:01;;;;;;;25.63;10.60;;;2.20;99.90;;;;;;5054912;28;20049;-85
2024/01/28 03:54:26;;;;;;;28.88;9.73;;;2.10;99.90;;;;;;5073847;28;20045;-86
2024/01/28 03:56:52;;;;;;;24.83;9.90;;;2.20;99.90;;;;;;5073859;28;20048;-85
2024/01/28 03:59:18;;;;;;;26.48;10.40;;;2.20;99.90;;;;;;5073437;28;20045;-84
2024/01/28 04:01:43;;;;;;;23.35;10.82;;;2.20;99.90;;;;;;5055240;28;20045;-89
2024/01/28 04:04:09;;;;;;;21.80;9.52;;;2.20;99.90;;;;;;5055305;28;20052;-86
2024/01/28 04:06:43;;;;;;;23.45;8.90;;;2.20;99.90;;;;;;5073463;28;20059;-87
2024/01/28 04:09:09;;;;;;;22.52;10.43;;;2.10;99.90;;;;;;5076524;28;20052;-88
2024/01/28 04:11:35;;;;;;;25.20;9.43;;;2.20;99.90;;;;;;5076909;28;20057;-87
2024/01/28 04:14:00;;;;;;;28.33;12.38;;;2.10;99.90;;;;;;5075252;28;20593;-88
2024/01/28 04:16:26;;;;;;;39.72;9.88;;;2.00;99.90;;;;;;5058359;28;20052;-83
2024/01/28 04:18:52;;;;;;;34.78;11.95;;;2.00;99.90;;;;;;5039513;28;20075;-86
2024/01/28 04:21:18;;;;;;;27.67;10.10;;;2.00;99.90;;;;;;5075044;28;20496;-79
2024/01/28 04:23:46;;;;;;;24.85;11.52;;;1.90;99.90;;;;;;5039162;28;20400;-88
2024/01/28 04:26:12;;;;;;;30.08;10.95;;;1.90;99.90;;;;;;5055926;28;20075;-89
2024/01/28 04:28:40;;;;;;;30.58;10.93;;;1.90;99.90;;;;;;5038951;28;20467;-87
2024/01/28 04:31:07;;;;;;;33.58;12.68;;;1.80;99.90;;;;;;5055474;28;20105;-84
2024/01/28 04:33:32;;;;;;;22.15;10.88;;;1.80;99.90;;;;;;5073495;28;20055;-86
2024/01/28 04:35:58;;;;;;;27.17;12.27;;;1.80;99.90;;;;;;5057598;28;20056;-82
2024/01/28 04:38:24;;;;;;;30.27;11.55;;;1.80;99.90;;;;;;5072682;28;20048;-80
2024/01/28 04:40:49;;;;;;;38.63;15.02;;;1.80;99.90;;;;;;5054087;28;20702;-84
2024/01/28 04:43:15;;;;;;;29.08;13.00;;;1.80;99.90;;;;;;5053951;28;20412;-81
2024/01/28 04:45:41;;;;;;;27.85;12.27;;;1.80;99.90;;;;;;5072444;28;20051;-83
2024/01/28 04:48:07;;;;;;;24.88;12.23;;;1.80;99.90;;;;;;5072501;28;20480;-84
2024/01/28 04:50:33;;;;;;;28.58;12.18;;;1.70;99.90;;;;;;5072385;28;20603;-79
2024/01/28 04:52:58;;;;;;;22.50;11.70;;;1.70;99.90;;;;;;5054841;28;20090;-83
2024/01/28 04:55:24;;;;;;;31.77;12.77;;;1.70;99.90;;;;;;5072290;28;20563;-88
2024/01/28 04:57:56;;;;;;;24.15;11.93;;;1.70;99.90;;;;;;5072704;28;20098;-83
2024/01/28 05:00:24;;;;;;;25.52;13.02;;;1.70;99.90;;;;;;5073041;28;20052;-87
2024/01/28 05:02:49;;;;;;;25.60;11.93;;;1.70;99.90;;;;;;5055782;28;20041;-82
2024/01/28 05:05:15;;;;;;;27.02;11.32;;;1.70;99.90;;;;;;5072484;28;20065;-80
2024/01/28 05:07:41;;;;;;;24.98;11.82;;;1.60;99.90;;;;;;5037936;28;20053;-83
2024/01/28 05:10:08;;;;;;;29.63;13.35;;;1.60;99.90;;;;;;5072153;28;20459;-84
2024/01/28 05:12:34;;;;;;;25.85;13.52;;;1.60;99.90;;;;;;5074431;28;20048;-86
2024/01/28 05:15:01;;;;;;;29.33;12.57;;;1.60;99.90;;;;;;5081105;28;20060;-83
2024/01/28 05:17:27;;;;;;;28.17;11.70;;;1.50;99.90;;;;;;5080245;28;20048;-87
2024/01/28 05:19:52;;;;;;;27.30;12.30;;;1.60;99.90;;;;;;5059408;28;20141;-89
2024/01/28 05:22:19;;;;;;;24.63;12.77;;;1.40;99.90;;;;;;5079959;28;20534;-84
2024/01/28 05:24:49;;;;;;;29.45;13.15;;;1.50;99.90;;;;;;5079665;28;20071;-84
2024/01/28 05:27:15;;;;;;;23.55;11.80;;;1.50;99.90;;;;;;5059746;28;20060;-89
2024/01/28 05:29:41;;;;;;;31.42;12.25;;;1.40;99.90;;;;;;5075518;28;20174;-90
2024/01/28 05:32:06;;;;;;;28.80;11.70;;;1.40;99.90;;;;;;5076712;28;20338;-88
2024/01/28 05:34:32;;;;;;;31.50;12.77;;;1.40;99.90;;;;;;5061043;28;20499;-84
2024/01/28 05:36:58;;;;;;;34.58;13.45;;;1.40;99.90;;;;;;5077418;28;20044;-89
2024/01/28 05:39:23;;;;;;;25.33;11.98;;;1.40;99.90;;;;;;5055991;28;20076;-87
2024/01/28 05:41:49;;;;;;;29.38;14.23;;;1.40;99.90;;;;;;5054311;28;20048;-90
2024/01/28 05:44:15;;;;;;;36.08;13.25;;;1.40;99.90;;;;;;5071969;28;20092;-90
2024/01/28 05:46:40;;;;;;;33.17;12.95;;;1.30;99.90;;;;;;5053758;28;20519;-89
2024/01/28 05:49:10;;;;;;;23.67;11.85;;;1.30;99.90;;;;;;5071966;28;20048;-90
2024/01/28 05:51:39;;;;;;;35.28;13.98;;;1.30;99.90;;;;;;5071409;28;20048;-89
2024/01/28 05:54:05;;;;;;;32.55;13.40;;;1.30;99.90;;;;;;5055945;28;20492;-89
2024/01/28 05:56:32;;;;;;;28.65;12.43;;;1.30;99.90;;;;;;5056514;28;20059;-89
2024/01/28 05:58:57;;;;;;;26.70;13.27;;;1.30;99.90;;;;;;5071940;28;20459;-90
2024/01/28 06:01:24;;;;;;;21.73;13.15;;;1.30;99.90;;;;;;5073114;28;20088;-90
2024/01/28 06:03:50;;;;;;;23.20;12.95;;;1.30;99.90;;;;;;5054857;28;20064;-90
2024/01/28 06:06:17;;;;;;;25.98;12.57;;;1.20;99.90;;;;;;5073109;28;20048;-90
2024/01/28 06:08:42;;;;;;;23.70;13.57;;;1.20;99.90;;;;;;5072823;28;20044;-91
2024/01/28 06:11:09;;;;;;;24.50;12.05;;;1.10;99.90;;;;;;5073282;28;20091;-91
2024/01/28 06:13:36;;;;;;;25.77;12.27;;;1.20;99.90;;;;;;5055339;28;20058;-90
2024/01/28 06:16:02;;;;;;;31.45;12.35;;;1.20;99.90;;;;;;5054938;28;20063;-89
2024/01/28 06:18:28;;;;;;;31.85;13.35;;;1.10;99.90;;;;;;5073461;28;20049;-90
2024/01/28 06:20:53;;;;;;;33.40;14.43;;;1.10;99.90;;;;;;5073144;28;20052;-87
2024/01/28 06:23:19;;;;;;;29.50;14.02;;;1.20;99.90;;;;;;5037314;28;20088;-90
2024/01/28 06:25:45;;;;;;;21.45;12.40;;;1.10;99.90;;;;;;5071922;28;20052;-90
2024/01/28 06:28:11;;;;;;;28.38;13.27;;;1.10;99.90;;;;;;5053524;28;20052;-88
2024/01/28 06:30:36;;;;;;;30.10;11.85;;;1.10;99.90;;;;;;5071267;28;20056;-89
2024/01/28 06:33:03;;;;;;;24.08;12.98;;;1.10;99.90;;;;;;5071442;28;20529;-89
2024/01/28 06:35:29;;;;;;;29.42;12.45;;;1.10;99.90;;;;;;5053424;28;20044;-88
2024/01/28 06:37:55;;;;;;;29.45;12.25;;;1.10;99.90;;;;;;5071317;28;20182;-90
2024/01/28 06:40:21;;;;;;;30.38;12.13;;;1.00;99.90;;;;;;5053396;28;20140;-89
2024/01/28 06:42:47;;;;;;;24.90;13.63;;;1.00;99.90;;;;;;5073655;28;20458;-86
2024/01/28 06:45:12;;;;;;;28.73;12.32;;;1.00;99.90;;;;;;5075951;28;20045;-89
2024/01/28 06:47:38;;;;;;;25.92;12.63;;;1.00;99.90;;;;;;5075870;28;20053;-90
2024/01/28 06:50:05;;;;;;;30.83;12.85;;;0.90;99.90;;;;;;5074687;28;20072;-90
2024/01/28 06:52:31;;;;;;;26.38;12.85;;;0.90;99.90;;;;;;5039916;28;20060;-89
2024/01/28 06:54:58;;;;;;;25.30;12.77;;;0.90;99.90;;;;;;5074984;28;20396;-88
2024/01/28 06:57:24;;;;;;;32.70;13.52;;;0.90;99.90;;;;;;5056572;28;20072;-90
2024/01/28 06:59:50;;;;;;;26.00;12.27;;;0.90;99.90;;;;;;5074614;28;20080;-89
2024/01/28 07:02:16;;;;;;;21.77;11.57;;;0.90;99.90;;;;;;5056871;28;20593;-83
2024/01/28 07:04:42;;;;;;;29.60;11.75;;;0.90;99.90;;;;;;5073892;28;20496;-86
2024/01/28 07:07:07;;;;;;;29.48;13.07;;;0.90;99.90;;;;;;5057325;28;20052;-90
2024/01/28 07:09:33;;;;;;;26.63;12.05;;;0.90;99.90;;;;;;5075225;28;20123;-90
2024/01/28 07:11:59;;;;;;;27.05;13.73;;;0.90;99.90;;;;;;5058845;28;20109;-88
2024/01/28 07:14:25;;;;;;;26.65;12.32;;;0.90;99.90;;;;;;5056753;28;20068;-89
2024/01/28 07:16:51;;;;;;;31.20;12.30;;;0.90;99.90;;;;;;5074701;28;20084;-90
2024/01/28 07:19:17;;;;;;;36.92;13.27;;;0.90;99.90;;;;;;5056055;28;20531;-83
2024/01/28 07:21:42;;;;;;;34.60;13.35;;;0.90;99.90;;;;;;5074247;28;20052;-88
2024/01/28 07:24:09;;;;;;;22.25;11.82;;;0.80;99.90;;;;;;5074433;28;20090;-90
2024/01/28 07:26:35;;;;;;;26.00;12.35;;;0.90;99.90;;;;;;5074604;28;20061;-90
2024/01/28 07:29:01;;;;;;;24.67;14.23;;;0.90;99.90;;;;;;5074502;28;20094;-90
2024/01/28 07:31:26;;;;;;;26.33;12.32;;;0.90;99.90;;;;;;5056018;28;20551;-89
2024/01/28 07:33:52;;;;;;;29.92;12.70;;;0.80;99.90;;;;;;5074738;28;20102;-87
2024/01/28 07:36:18;;;;;;;21.83;11.25;;;0.80;99.90;;;;;;5074610;28;20044;-90
2024/01/28 07:38:44;;;;;;;30.20;11.43;;;0.90;99.90;;;;;;5074179;28;20443;-86
2024/01/28 07:41:14;;;;;;;23.88;10.75;;;0.80;99.90;;;;;;5074234;28;20052;-89
2024/01/28 07:43:43;;;;;;;24.20;12.70;;;0.80;99.90;;;;;;5056818;28;20106;-86
2024/01/28 07:46:09;;;;;;;24.98;10.73;;;0.80;99.90;;;;;;5074089;28;20048;-85
2024/01/28 07:48:35;;;;;;;24.52;11.32;;;0.90;99.90;;;;;;5056180;28;20053;-89
2024/01/28 07:51:02;;;;;;;25.55;11.95;;;0.90;99.90;;;;;;5039359;28;20052;-91
2024/01/28 07:53:28;;;;;;;24.63;11.68;;;0.90;99.90;;;;;;5039076;28;20056;-90
2024/01/28 07:55:54;;;;;;;22.60;10.75;;;0.90;99.90;;;;;;5075943;28;20064;-84
2024/01/28 07:58:20;;;;;;;23.38;10.65;;;1.00;99.90;;;;;;5055771;28;20181;-89
2024/01/28 08:00:46;;;;;;;25.88;12.75;;;1.00;99.90;;;;;;5056199;28;20509;-87
2024/01/28 08:03:12;;;;;;;19.92;11.13;;;1.00;99.90;;;;;;5073691;28;20048;-89
2024/01/28 08:05:38;;;;;;;19.77;10.77;;;1.00;99.90;;;;;;5056375;28;20052;-86
2024/01/28 08:08:04;;;;;;;18.60;10.13;;;1.10;99.90;;;;;;5073426;28;20344;-87
2024/01/28 08:10:30;;;;;;;26.58;10.07;;;1.10;99.90;;;;;;5056105;28;20057;-90
2024/01/28 08:12:56;;;;;;;23.05;10.05;;;1.20;99.90;;;;;;5055787;28;20063;-90
2024/01/28 08:15:22;;;;;;;22.52;9.32;;;1.20;99.90;;;;;;5073582;28;20667;-87
2024/01/28 08:17:49;;;;;;;22.70;9.48;;;1.20;99.90;;;;;;5076879;28;20056;-91
2024/01/28 08:20:16;;;;;;;18.58;10.18;;;1.20;99.90;;;;;;5078311;28;20446;-91
2024/01/28 08:22:42;;;;;;;19.30;11.57;;;1.20;99.90;;;;;;5074039;28;20441;-89
2024/01/28 08:25:08;;;;;;;23.90;10.82;;;1.30;99.90;;;;;;5021635;28;20131;-90
2024/01/28 08:27:34;;;;;;;26.23;10.05;;;1.30;99.90;;;;;;5072866;28;20135;-87
2024/01/28 08:30:00;;;;;;;18.05;9.00;;;1.40;99.90;;;;;;5072995;28;20086;-88
2024/01/28 08:32:25;;;;;;;22.92;9.90;;;1.50;99.90;;;;;;5072682;28;20052;-87
2024/01/28 08:34:51;;;;;;;19.38;9.23;;;1.50;99.90;;;;;;5073009;28;20071;-86
2024/01/28 08:37:17;;;;;;;25.23;10.68;;;1.60;99.90;;;;;;5072639;28;20083;-90
2024/01/28 08:39:43;;;;;;;23.88;11.45;;;1.70;99.90;;;;;;5072601;28;20050;-90
2024/01/28 08:42:09;;;;;;;25.92;9.25;;;1.70;99.90;;;;;;5072868;28;20132;-90
2024/01/28 08:44:35;;;;;;;16.35;9.10;;;1.80;99.90;;;;;;5074329;28;20064;-88
2024/01/28 08:47:01;;;;;;;17.98;8.52;;;1.90;99.90;;;;;;5072498;28;20076;-83
2024/01/28 08:49:27;;;;;;;22.15;9.02;;;2.00;99.90;;;;;;5072593;28;20090;-89
2024/01/28 08:51:53;;;;;;;23.27;9.98;;;2.10;99.90;;;;;;5072116;28;20041;-89
2024/01/28 08:54:20;;;;;;;16.13;8.80;;;2.20;99.90;;;;;;5072106;28;20476;-85
2024/01/28 08:56:47;;;;;;;21.80;8.98;;;2.30;99.90;;;;;;5072896;28;20088;-86
2024/01/28 08:59:13;;;;;;;20.27;8.98;;;2.40;99.90;;;;;;5055818;28;20051;-82
2024/01/28 09:01:39;;;;;;;19.42;7.82;;;2.50;99.90;;;;;;5073221;28;20048;-88
2024/01/28 09:04:05;;;;;;;19.75;8.35;;;2.60;99.90;;;;;;5073362;28;20135;-85
2024/01/28 09:06:31;;;;;;;22.40;6.68;;;2.70;99.90;;;;;;5074219;28;20127;-82
2024/01/28 09:08:56;;;;;;;14.93;7.30;;;2.80;99.90;;;;;;5072512;28;20118;-83
2024/01/28 09:11:22;;;;;;;18.95;7.82;;;3.00;99.90;;;;;;5072537;28;20484;-90
2024/01/28 09:13:49;;;;;;;18.48;7.28;;;3.10;99.90;;;;;;5072104;28;20126;-81
2024/01/28 09:16:15;;;;;;;15.05;7.00;;;3.30;99.90;;;;;;5072298;28;20058;-90
2024/01/28 09:18:42;;;;;;;14.52;6.53;;;3.50;99.90;;;;;;5072879;28;20044;-83
2024/01/28 09:21:09;;;;;;;17.75;7.65;;;3.70;99.90;;;;;;5072143;28;20060;-86
2024/01/28 09:23:36;;;;;;;17.58;7.03;;;3.70;99.90;;;;;;5071977;28;20048;-89
2024/01/28 09:26:02;;;;;;;17.80;6.78;;;3.90;99.90;;;;;;5071774;28;20048;-89
2024/01/28 09:28:27;;;;;;;14.32;5.85;;;4.00;99.90;;;;;;5073883;28;20381;-89
2024/01/28 09:30:53;;;;;;;13.43;6.22;;;4.00;99.90;;;;;;5053970;28;20556;-84
2024/01/28 09:33:18;;;;;;;19.60;6.47;;;4.00;99.90;;;;;;5072223;28;20522;-85
2024/01/28 09:35:46;;;;;;;24.50;7.78;;;3.90;99.90;;;;;;5072024;28;20062;-91
2024/01/28 09:38:12;;;;;;;19.65;6.63;;;3.90;99.90;;;;;;5073184;28;20127;-86
2024/01/28 09:40:38;;;;;;;14.23;6.22;;;3.80;99.90;;;;;;5072160;28;20140;-87
2024/01/28 09:43:30;;;;;;;13.93;5.97;;;3.80;99.90;;;;;;5036598;28;20135;-87
2024/01/28 09:45:58;;;;;;;12.52;5.68;;;3.80;99.90;;;;;;5072126;28;20374;-84
2024/01/28 09:48:24;;;;;;;14.25;6.07;;;3.70;99.90;;;;;;5072284;28;20084;-81
2024/01/28 09:50:50;;;;;;;16.05;6.38;;;3.70;99.90;;;;;;5072253;28;20051;-85
2024/01/28 09:53:16;;;;;;;17.52;6.57;;;3.70;99.90;;;;;;5074216;28;20560;-87
2024/01/28 09:55:42;;;;;;;12.73;5.45;;;3.60;99.90;;;;;;5072183;28;20048;-87
2024/01/28 09:58:10;;;;;;;11.85;5.00;;;3.60;99.90;;;;;;5071370;28;20404;-85
2024/01/28 10:00:38;;;;;;;12.23;4.82;;;3.60;99.90;;;;;;5072445;28;20117;-87
2024/01/28 10:03:04;;;;;;;13.85;5.47;;;3.70;99.90;;;;;;5053740;28;20071;-82
2024/01/28 10:05:31;;;;;;;20.05;5.22;;;3.80;99.90;;;;;;5053497;28;20404;-84
2024/01/28 10:08:02;;;;;;;13.40;5.22;;;4.10;99.90;;;;;;5071377;28;20078;-88
2024/01/28 10:10:28;;;;;;;17.35;5.20;;;4.30;99.90;;;;;;5072103;28;20048;-80
2024/01/28 10:12:54;;;;;;;12.43;4.30;;;4.40;99.90;;;;;;5071525;28;20052;-84
2024/01/28 10:15:23;;;;;;;11.07;4.82;;;4.50;99.90;;;;;;5072420;28;20381;-86
2024/01/28 10:17:49;;;;;;;12.93;4.53;;;4.70;99.90;;;;;;5060110;28;20067;-84
2024/01/28 10:20:21;;;;;;;12.32;4.63;;;4.70;99.90;;;;;;5075565;28;20049;-82
2024/01/28 10:22:48;;;;;;;11.70;4.75;;;4.80;99.90;;;;;;5075755;28;20515;-84
2024/01/28 10:25:16;;;;;;;10.80;4.43;;;4.90;99.90;;;;;;5076371;28;20048;-84
2024/01/28 10:27:43;;;;;;;12.23;5.13;;;5.10;99.90;;;;;;5076871;28;20396;-84
2024/01/28 10:30:10;;;;;;;11.60;5.18;;;5.40;99.90;;;;;;5075430;28;20131;-85
2024/01/28 10:32:37;;;;;;;11.52;4.00;;;5.60;99.90;;;;;;5075384;28;20171;-80
2024/01/28 10:35:07;;;;;;;16.40;4.45;;;5.80;99.90;;;;;;5059366;28;20120;-85
2024/01/28 10:37:34;;;;;;;10.15;4.13;;;5.90;99.90;;;;;;5079738;28;20056;-85
2024/01/28 10:40:05;;;;;;;16.48;4.88;;;5.90;99.90;;;;;;5078570;28;20496;-84
2024/01/28 10:42:35;;;;;;;13.00;4.60;;;6.00;99.90;;;;;;5081749;28;20056;-81
2024/01/28 10:45:03;;;;;;;11.02;4.40;;;6.10;99.90;;;;;;5076264;28;20045;-81
2024/01/28 10:47:31;;;;;;;10.52;4.35;;;6.30;99.90;;;;;;5075588;28;20056;-80
2024/01/28 10:50:00;;;;;;;19.80;5.95;;;6.40;99.90;;;;;;5075073;28;20139;-81
2024/01/28 10:52:26;;;;;;;9.70;4.63;;;6.50;99.90;;;;;;5056278;28;20059;-81
2024/01/28 10:54:53;;;;;;;9.55;4.32;;;6.70;99.90;;;;;;5074546;28;20659;-80
2024/01/28 10:57:20;;;;;;;8.82;3.40;;;6.70;99.90;;;;;;5074783;28;20044;-84
2024/01/28 10:59:47;;;;;;;11.75;4.18;;;6.80;99.90;;;;;;5074435;28;20048;-81
2024/01/28 11:02:13;;;;;;;11.68;3.92;;;6.80;99.90;;;;;;5039447;28;20083;-81
2024/01/28 11:04:40;;;;;;;12.55;4.05;;;7.00;99.90;;;;;;5056426;28;20052;-89
2024/01/28 11:07:06;;;;;;;10.48;3.80;;;7.20;99.90;;;;;;5074797;28;20056;-82
2024/01/28 11:09:32;;;;;;;10.00;4.18;;;7.60;99.90;;;;;;5056358;28;20051;-82
2024/01/28 11:11:58;;;;;;;13.18;3.60;;;8.30;99.90;;;;;;5056359;28;20060;-81
2024/01/28 11:14:27;;;;;;;8.82;3.63;;;8.60;99.90;;;;;;5055930;28;20449;-82
2024/01/28 11:16:55;;;;;;;11.52;3.55;;;8.50;99.90;;;;;;5075512;28;20060;-82
2024/01/28 11:19:26;;;;;;;13.95;3.78;;;8.50;99.90;;;;;;5074418;28;20052;-81
2024/01/28 11:21:52;;;;;;;8.35;3.70;;;8.30;99.90;;;;;;5074323;28;20515;-79
2024/01/28 11:24:18;;;;;;;15.50;4.20;;;8.10;99.90;;;;;;5057267;28;20457;-86
2024/01/28 11:26:46;;;;;;;11.77;3.97;;;8.20;99.90;;;;;;5062036;28;20059;-88
2024/01/28 11:29:12;;;;;;;10.13;5.22;;;8.60;99.90;;;;;;5077039;28;20045;-80
2024/01/28 11:31:40;;;;;;;8.00;3.83;;;9.30;99.90;;;;;;5078781;28;20055;-80
2024/01/28 11:34:20;;;;;;;11.68;3.58;;;9.80;99.90;;;;;;5059822;28;20052;-81
2024/01/28 11:36:54;;;;;;;16.63;4.75;;;10.20;99.90;;;;;;5080529;28;20143;-80
2024/01/28 11:39:35;;;;;;;16.52;4.38;;;10.60;99.90;;;;;;5077802;28;20055;-82
2024/01/28 11:42:01;;;;;;;8.48;3.42;;;11.20;99.90;;;;;;5073775;28;20048;-84
2024/01/28 11:44:28;;;;;;;11.95;3.88;;;11.40;99.90;;;;;;5073300;28;20117;-82
2024/01/28 11:46:56;;;;;;;10.75;3.72;;;11.70;99.90;;;;;;5073750;28;20044;-81
2024/01/28 11:49:21;;;;;;;10.15;3.67;;;11.50;99.90;;;;;;5074282;28;20143;-84
2024/01/28 11:51:47;;;;;;;13.27;3.60;;;11.90;99.90;;;;;;5073066;28;20847;-84
2024/01/28 11:54:13;;;;;;;11.02;4.07;;;12.00;99.60;;;;;;5073373;28;20374;-86
2024/01/28 11:56:39;;;;;;;11.23;3.25;;;12.90;99.40;;;;;;5073841;28;20048;-84
2024/01/28 11:59:09;;;;;;;8.75;3.05;;;13.40;96.90;;;;;;5055063;28;20048;-86
2024/01/28 12:01:34;;;;;;;8.30;3.60;;;13.60;95.50;;;;;;5054810;28;20084;-86
2024/01/28 12:04:03;;;;;;;8.98;3.25;;;14.10;96.60;;;;;;5072855;28;20095;-82
2024/01/28 12:06:29;;;;;;;9.93;3.88;;;14.80;95.90;;;;;;5073259;28;20048;-81
2024/01/28 12:08:55;;;;;;;10.43;3.70;;;15.30;94.40;;;;;;5055285;28;20040;-87
2024/01/28 12:11:22;;;;;;;9.88;4.00;;;15.50;92.80;;;;;;5073102;28;20044;-88
2024/01/28 12:13:51;;;;;;;12.13;3.97;;;16.10;93.10;;;;;;5072837;28;20072;-83
2024/01/28 12:16:22;;;;;;;6.47;3.20;;;16.40;91.90;;;;;;5073840;28;20087;-83
2024/01/28 12:18:48;;;;;;;9.55;2.90;;;16.80;85.10;;;;;;5055074;28;20488;-87
2024/01/28 12:21:18;;;;;;;8.77;3.00;;;16.90;89.30;;;;;;5072980;28;20045;-87
2024/01/28 12:23:48;;;;;;;10.02;3.65;;;17.00;85.90;;;;;;5073067;28;20123;-88
2024/01/28 12:26:15;;;;;;;8.00;2.85;;;16.60;84.40;;;;;;5072611;28;20071;-87
2024/01/28 12:28:45;;;;;;;10.50;3.80;;;17.30;84.60;;;;;;5073265;28;20048;-88
2024/01/28 12:31:11;;;;;;;8.68;3.05;;;17.70;83.80;;;;;;5072688;28;20056;-88
2024/01/28 12:33:37;;;;;;;12.23;3.45;;;18.20;82.70;;;;;;5055090;28;20128;-89
2024/01/28 12:36:02;;;;;;;13.55;3.13;;;18.20;78.20;;;;;;5073182;28;20097;-89